TimeEST,TemperatureF,Dew PointF,Humidity,Sea Level PressureIn,VisibilityMPH,Wind Direction,Wind SpeedMPH,Gust SpeedMPH,PrecipitationIn,Events,Conditions,WindDirDegrees,DateUTC
12:54 AM,53.1,52.0,96,30.15,3.0,Calm,Calm,-,0.00,Rain,Light Rain,0,2011-12-06 05:54:00
1:54 AM,53.1,52.0,96,30.14,3.0,Calm,Calm,-,0.00,,Overcast,0,2011-12-06 06:54:00
2:54 AM,53.6,51.8,94,30.12,0.5,Calm,Calm,-,N/A,Fog,Fog,0,2011-12-06 07:54:00
3:54 AM,54.0,53.1,97,30.11,1.0,Calm,Calm,-,N/A,,Overcast,0,2011-12-06 08:54:00
4:54 AM,54.0,53.1,97,30.10,0.5,Calm,Calm,-,N/A,Fog,Fog,0,2011-12-06 09:54:00
5:54 AM,55.0,54.0,96,30.10,0.5,NW,4.6,-,N/A,Fog,Fog,310,2011-12-06 10:54:00
6:08 AM,55.4,55.4,100,30.10,1.0,Calm,Calm,-,N/A,,Overcast,0,2011-12-06 11:08:00
6:41 AM,55.4,55.4,100,30.10,2.0,Calm,Calm,-,N/A,,Overcast,0,2011-12-06 11:41:00
6:54 AM,55.0,54.0,96,30.09,2.0,Calm,Calm,-,N/A,,Overcast,0,2011-12-06 11:54:00
7:09 AM,55.4,53.6,94,30.11,2.0,Calm,Calm,-,N/A,,Overcast,0,2011-12-06 12:09:00
7:39 AM,55.4,53.6,94,30.11,3.0,ENE,3.5,-,N/A,,Overcast,60,2011-12-06 12:39:00
7:54 AM,55.9,55.0,97,30.10,3.0,ENE,3.5,-,0.00,Rain,Light Rain,60,2011-12-06 12:54:00
8:28 AM,55.4,55.4,100,30.11,2.5,Calm,Calm,-,0.00,,Overcast,0,2011-12-06 13:28:00
8:40 AM,55.4,55.4,100,30.11,1.8,Calm,Calm,-,0.01,Rain,Light Rain,0,2011-12-06 13:40:00
8:54 AM,55.0,54.0,96,30.11,2.0,Calm,Calm,-,0.01,,Overcast,0,2011-12-06 13:54:00
9:08 AM,55.4,53.6,94,30.11,1.5,Calm,Calm,-,N/A,,Overcast,0,2011-12-06 14:08:00
9:54 AM,55.9,55.0,97,30.11,1.5,Calm,Calm,-,0.02,Rain,Light Rain,0,2011-12-06 14:54:00
10:04 AM,55.4,55.4,100,30.11,2.5,Calm,Calm,-,0.00,,Overcast,0,2011-12-06 15:04:00
10:14 AM,55.4,55.4,100,30.11,3.0,Calm,Calm,-,0.00,,Overcast,0,2011-12-06 15:14:00
10:35 AM,55.4,55.4,100,30.10,2.5,Calm,Calm,-,0.00,,Overcast,0,2011-12-06 15:35:00
10:45 AM,57.2,55.4,94,30.10,2.5,Calm,Calm,-,0.00,,Overcast,0,2011-12-06 15:45:00
10:54 AM,57.0,55.0,93,30.09,2.5,Calm,Calm,-,0.00,,Overcast,0,2011-12-06 15:54:00
11:23 AM,57.2,55.4,94,30.08,2.5,Calm,Calm,-,0.01,Rain,Light Rain,0,2011-12-06 16:23:00
11:30 AM,57.2,55.4,94,30.08,3.0,NW,4.6,-,0.02,Rain,Light Rain,310,2011-12-06 16:30:00
11:54 AM,57.2,57.2,100,30.07,3.0,Calm,Calm,-,N/A,Rain,Light Rain,0,2011-12-06 16:54:00
12:07 PM,57.2,57.2,100,30.07,2.5,Calm,Calm,-,0.01,Rain,Light Rain,0,2011-12-06 17:07:00
12:28 PM,59.0,57.2,94,30.06,3.0,Calm,Calm,-,0.06,Rain,Light Rain,0,2011-12-06 17:28:00
12:35 PM,59.0,57.2,94,30.05,2.5,Calm,Calm,-,0.07,Rain,Light Rain,0,2011-12-06 17:35:00
12:44 PM,59.0,57.2,94,30.05,3.0,Calm,Calm,-,0.08,Rain,Light Rain,0,2011-12-06 17:44:00
12:51 PM,59.0,57.2,94,30.05,2.5,Calm,Calm,-,0.09,Rain,Rain,0,2011-12-06 17:51:00
12:54 PM,57.9,57.0,97,30.04,2.0,Calm,Calm,-,0.10,Rain,Light Rain,0,2011-12-06 17:54:00
1:11 PM,59.0,57.2,94,30.03,2.5,Calm,Calm,-,0.03,Rain,Light Rain,0,2011-12-06 18:11:00
1:41 PM,57.2,57.2,100,30.04,-9999.0,Calm,Calm,-,0.09,Rain,Rain,0,2011-12-06 18:41:00
1:54 PM,59.0,57.9,96,30.02,1.2,Calm,Calm,-,0.11,Rain,Light Rain,0,2011-12-06 18:54:00
2:05 PM,59.0,57.2,94,30.02,2.0,Calm,Calm,-,0.01,Rain,Light Rain,0,2011-12-06 19:05:00
2:11 PM,59.0,57.2,94,30.02,1.5,Calm,Calm,-,0.02,Rain,Light Rain,0,2011-12-06 19:11:00
2:25 PM,59.0,57.2,94,30.01,1.8,Calm,Calm,-,0.03,Rain,Light Rain,0,2011-12-06 19:25:00
2:41 PM,59.0,57.2,94,30.02,3.0,Calm,Calm,-,0.03,Rain,Light Rain,0,2011-12-06 19:41:00
2:52 PM,59.0,57.2,94,30.02,1.8,Calm,Calm,-,0.03,,Overcast,0,2011-12-06 19:52:00
2:54 PM,59.0,57.9,96,30.01,1.8,Calm,Calm,-,0.03,Rain,Light Rain,0,2011-12-06 19:54:00
3:01 PM,59.0,57.2,94,30.02,2.5,Calm,Calm,-,0.00,Rain,Light Rain,0,2011-12-06 20:01:00
3:54 PM,59.0,57.9,96,30.00,2.5,Calm,Calm,-,0.05,Rain,Light Rain,0,2011-12-06 20:54:00
4:14 PM,59.0,57.2,94,30.01,4.0,ESE,3.5,-,0.00,Rain,Light Rain,110,2011-12-06 21:14:00
4:54 PM,59.0,57.9,96,30.01,5.0,SE,3.5,-,0.00,,Overcast,130,2011-12-06 21:54:00
5:51 PM,59.0,57.2,94,30.01,2.0,Calm,Calm,-,0.05,Rain,Light Rain,0,2011-12-06 22:51:00
5:54 PM,59.0,57.9,96,30.01,2.0,Calm,Calm,-,0.05,Rain,Light Rain,0,2011-12-06 22:54:00
6:27 PM,57.2,57.2,100,30.02,6.0,Calm,Calm,-,0.00,Rain,Light Rain,0,2011-12-06 23:27:00
6:36 PM,57.2,57.2,100,30.02,5.0,Calm,Calm,-,0.00,Rain,Light Rain,0,2011-12-06 23:36:00
6:54 PM,57.9,57.0,97,30.01,4.0,Calm,Calm,-,0.00,Rain,Light Rain,0,2011-12-06 23:54:00
7:21 PM,57.2,57.2,100,30.02,2.0,Calm,Calm,-,0.01,Rain,Light Rain,0,2011-12-07 00:21:00
7:30 PM,57.2,57.2,100,30.02,6.0,Calm,Calm,-,0.01,Rain,Light Rain,0,2011-12-07 00:30:00
7:35 PM,57.2,57.2,100,30.02,1.8,Calm,Calm,-,0.01,,Overcast,0,2011-12-07 00:35:00
7:52 PM,57.2,55.4,94,30.02,0.5,NNE,3.5,-,0.01,Fog,Fog,30,2011-12-07 00:52:00
7:54 PM,57.0,57.0,100,30.01,0.5,NE,3.5,-,0.01,Fog,Fog,40,2011-12-07 00:54:00
8:02 PM,57.2,57.2,100,30.02,4.0,Calm,Calm,-,N/A,,Mostly Cloudy,0,2011-12-07 01:02:00
8:54 PM,57.9,57.0,97,29.99,3.0,East,4.6,-,N/A,,Overcast,90,2011-12-07 01:54:00
9:22 PM,57.2,57.2,100,29.98,3.0,Calm,Calm,-,N/A,,Mostly Cloudy,0,2011-12-07 02:22:00
9:54 PM,57.0,55.9,96,29.98,3.0,Calm,Calm,-,N/A,,Overcast,0,2011-12-07 02:54:00
10:08 PM,57.2,55.4,94,29.98,3.0,Calm,Calm,-,N/A,,Overcast,0,2011-12-07 03:08:00
10:46 PM,57.2,55.4,94,29.98,1.0,Calm,Calm,-,0.02,Rain,Rain,0,2011-12-07 03:46:00
10:51 PM,57.2,55.4,94,29.97,0.8,Calm,Calm,-,0.03,Rain,Light Rain,0,2011-12-07 03:51:00
10:54 PM,57.0,55.9,96,29.96,0.8,Calm,Calm,-,0.06,Rain,Heavy Rain,0,2011-12-07 03:54:00
11:02 PM,57.2,55.4,94,29.96,1.2,Calm,Calm,-,0.03,Rain,Light Rain,0,2011-12-07 04:02:00
11:19 PM,57.2,55.4,94,29.95,3.0,Calm,Calm,-,0.03,,Overcast,0,2011-12-07 04:19:00
11:25 PM,57.2,57.2,100,29.95,1.5,Calm,Calm,-,0.03,,Overcast,0,2011-12-07 04:25:00
11:54 PM,57.0,55.9,96,29.95,1.5,Calm,Calm,-,0.03,,Overcast,0,2011-12-07 04:54:00